Time;durP1;ratioP1;P1;durP2;ratioP2;P2;SDS_P1;SDS_P2;PMS_P1;PMS_P2;Temp;Humidity;BMP_temperature;BMP_pressure;BME280_temperature;BME280_humidity;BME280_pressure;Samples;Min_cycle;Max_cycle;Signal;HPM_P1;HPM_P2
2022/05/17 00:01:47;;;;;;;6.37;3.40;;;21.60;57.80;;;;;;5070910;28;20232;-43
2022/05/17 00:04:13;;;;;;;3.90;3.43;;;21.40;57.90;;;;;;5058751;28;20245;-43
2022/05/17 00:06:39;;;;;;;4.30;3.50;;;21.40;58.00;;;;;;5070878;28;20200;-43
2022/05/17 00:09:04;;;;;;;8.20;3.70;;;21.20;58.90;;;;;;5071442;28;20882;-44
2022/05/17 00:11:30;;;;;;;4.20;3.80;;;21.10;59.10;;;;;;5070673;28;20679;-42
2022/05/17 00:13:56;;;;;;;10.93;3.90;;;21.00;59.40;;;;;;5071355;28;20639;-43
2022/05/17 00:16:22;;;;;;;8.63;3.30;;;21.00;59.50;;;;;;5070657;28;20192;-44
2022/05/17 00:18:48;;;;;;;10.97;4.87;;;20.70;60.30;;;;;;5071530;28;20222;-44
2022/05/17 00:21:14;;;;;;;8.83;3.90;;;20.60;61.10;;;;;;5071021;28;20427;-43
2022/05/17 00:23:41;;;;;;;7.77;3.63;;;20.60;61.40;;;;;;5069515;28;20843;-43
2022/05/17 00:26:07;;;;;;;3.50;3.20;;;20.50;61.60;;;;;;5070799;28;20287;-44
2022/05/17 00:28:33;;;;;;;4.63;4.00;;;20.50;61.30;;;;;;5071028;28;20509;-44
2022/05/17 00:31:00;;;;;;;6.00;3.90;;;20.50;61.40;;;;;;5070594;28;20278;-43
2022/05/17 00:33:27;;;;;;;6.07;3.87;;;20.50;61.30;;;;;;5070825;28;20451;-45
2022/05/17 00:35:53;;;;;;;5.30;4.30;;;20.60;61.10;;;;;;5070569;28;20872;-43
2022/05/17 00:38:19;;;;;;;8.40;3.47;;;20.70;60.70;;;;;;5070560;28;20517;-43
2022/05/17 00:40:45;;;;;;;4.57;3.30;;;20.70;60.60;;;;;;5070747;28;20513;-43
2022/05/17 00:43:20;;;;;;;8.73;4.30;;;20.80;60.20;;;;;;5070891;28;20426;-43
2022/05/17 00:45:49;;;;;;;7.30;4.10;;;20.90;60.00;;;;;;5070249;28;20429;-43
2022/05/17 00:48:17;;;;;;;5.73;4.03;;;20.90;60.00;;;;;;5070653;28;20489;-43
2022/05/17 00:50:51;;;;;;;4.80;3.90;;;20.80;60.10;;;;;;5068871;28;20918;-43
2022/05/17 00:53:32;;;;;;;4.70;3.43;;;20.60;61.20;;;;;;5070672;28;20433;-43
2022/05/17 00:56:02;;;;;;;3.97;3.67;;;20.40;62.10;;;;;;5069330;28;20434;-43
2022/05/17 00:58:29;;;;;;;5.73;4.13;;;20.20;62.50;;;;;;5070312;28;20426;-43
2022/05/17 01:01:02;;;;;;;5.97;4.00;;;20.20;62.60;;;;;;5069816;28;20495;-44
2022/05/17 01:03:34;;;;;;;7.10;4.03;;;20.00;63.20;;;;;;5057617;28;20933;-43
2022/05/17 01:06:02;;;;;;;8.67;3.90;;;19.90;64.20;;;;;;5070091;28;20509;-43
2022/05/17 01:08:28;;;;;;;5.00;3.30;;;19.80;64.50;;;;;;5070138;28;20430;-43
2022/05/17 01:10:54;;;;;;;5.97;3.87;;;19.60;65.10;;;;;;5069797;28;20473;-44
2022/05/17 01:16:07;;;;;;;5.77;4.00;;;19.50;66.00;;;;;;5069800;28;20199;-44
2022/05/17 01:18:34;;;;;;;7.10;4.40;;;19.60;65.30;;;;;;5068243;28;20438;-43
2022/05/17 01:21:01;;;;;;;8.17;4.43;;;19.60;65.30;;;;;;5069477;28;20521;-43
2022/05/17 01:23:26;;;;;;;5.20;3.80;;;19.70;64.60;;;;;;5070220;28;20665;-43
2022/05/17 01:25:52;;;;;;;6.00;4.13;;;19.60;64.80;;;;;;5069825;28;20513;-43
2022/05/17 01:28:24;;;;;;;6.10;4.67;;;19.50;65.60;;;;;;5069966;28;20274;-44
2022/05/17 01:30:50;;;;;;;5.17;4.03;;;19.40;65.60;;;;;;5069451;28;20216;-44
2022/05/17 01:33:18;;;;;;;6.20;4.07;;;19.30;65.70;;;;;;5070239;28;20431;-43
2022/05/17 01:35:44;;;;;;;4.23;3.80;;;19.40;65.20;;;;;;5069948;28;20237;-43
2022/05/17 01:38:10;;;;;;;5.13;3.93;;;19.30;66.20;;;;;;5069700;28;20434;-44
2022/05/17 01:40:36;;;;;;;5.03;4.23;;;19.50;65.70;;;;;;5069312;28;20936;-43
2022/05/17 01:43:02;;;;;;;3.93;3.60;;;19.40;65.10;;;;;;5069848;28;20192;-43
2022/05/17 01:45:28;;;;;;;8.47;3.73;;;19.50;65.20;;;;;;5068009;28;20271;-44
2022/05/17 01:47:54;;;;;;;6.83;4.23;;;19.60;64.60;;;;;;5069165;28;20233;-44
2022/05/17 01:50:19;;;;;;;4.57;4.17;;;19.60;64.70;;;;;;5069331;28;20932;-43
2022/05/17 01:52:45;;;;;;;5.80;4.50;;;19.50;64.70;;;;;;5069872;28;20555;-43
2022/05/17 01:55:12;;;;;;;4.80;4.17;;;19.30;65.80;;;;;;5069663;28;20196;-43
2022/05/17 01:57:37;;;;;;;7.37;4.10;;;19.30;65.80;;;;;;5069321;28;20252;-44
2022/05/17 02:00:06;;;;;;;4.90;3.80;;;19.40;65.10;;;;;;5069272;28;20422;-43
2022/05/17 02:02:32;;;;;;;4.50;4.10;;;19.50;64.50;;;;;;5064111;28;20236;-43
2022/05/17 02:04:58;;;;;;;6.83;3.77;;;19.50;64.30;;;;;;5060101;28;20446;-43
2022/05/17 02:07:23;;;;;;;7.77;4.67;;;19.60;64.10;;;;;;5069009;28;20909;-43
2022/05/17 02:09:49;;;;;;;5.77;3.67;;;19.70;63.60;;;;;;5072566;28;20196;-43
2022/05/17 02:12:15;;;;;;;10.13;4.90;;;19.70;63.50;;;;;;5072073;28;20701;-44
2022/05/17 02:14:41;;;;;;;5.43;3.70;;;19.60;63.50;;;;;;5073948;28;20210;-43
2022/05/17 02:17:06;;;;;;;9.00;4.80;;;19.60;63.70;;;;;;5072959;28;20422;-43
2022/05/17 02:19:32;;;;;;;7.17;4.30;;;19.40;64.20;;;;;;5073807;28;20192;-43
2022/05/17 02:21:58;;;;;;;4.80;3.80;;;19.20;64.80;;;;;;5073149;28;20223;-42
2022/05/17 02:24:23;;;;;;;6.53;3.93;;;19.10;65.60;;;;;;5073780;28;20270;-42
2022/05/17 02:26:49;;;;;;;5.23;3.53;;;19.10;65.50;;;;;;5072711;28;20195;-43
2022/05/17 02:29:15;;;;;;;8.23;4.20;;;19.00;65.70;;;;;;5073803;28;20275;-42
2022/05/17 02:31:41;;;;;;;9.57;4.40;;;19.00;65.50;;;;;;5072860;28;20587;-43
2022/05/17 02:34:06;;;;;;;9.23;4.27;;;19.10;65.40;;;;;;5073450;28;20487;-43
2022/05/17 02:36:32;;;;;;;4.43;4.10;;;19.00;65.70;;;;;;5072454;28;20256;-42
2022/05/17 02:38:57;;;;;;;4.83;4.43;;;18.90;66.20;;;;;;5071525;28;20192;-43
2022/05/17 02:41:23;;;;;;;8.60;5.60;;;19.00;65.80;;;;;;5073117;28;20203;-43
2022/05/17 02:43:50;;;;;;;10.67;6.50;;;18.90;65.90;;;;;;5073292;28;20298;-43
2022/05/17 02:46:16;;;;;;;8.10;5.83;;;18.90;65.60;;;;;;5072329;28;20422;-43
2022/05/17 02:48:42;;;;;;;5.50;4.83;;;18.80;66.30;;;;;;5073102;28;20437;-42
2022/05/17 02:51:20;;;;;;;4.70;3.70;;;18.80;66.20;;;;;;5072446;28;20473;-42
2022/05/17 02:53:46;;;;;;;5.77;3.87;;;18.60;66.70;;;;;;5065670;28;20963;-44
2022/05/17 02:56:12;;;;;;;4.53;4.10;;;18.50;67.00;;;;;;5072119;28;20458;-47
2022/05/17 02:58:38;;;;;;;6.53;3.60;;;18.60;66.60;;;;;;5072688;28;20437;-44
2022/05/17 03:01:05;;;;;;;5.17;4.13;;;18.60;66.70;;;;;;5072128;28;20429;-44
2022/05/17 03:03:31;;;;;;;4.57;4.13;;;18.60;66.70;;;;;;5058317;28;20220;-47
2022/05/17 03:05:57;;;;;;;6.00;4.53;;;18.60;66.70;;;;;;5069489;28;20527;-45
2022/05/17 03:08:22;;;;;;;6.70;4.93;;;18.60;66.80;;;;;;5071191;28;20414;-47
2022/05/17 03:10:48;;;;;;;8.57;4.67;;;18.50;66.90;;;;;;5070979;28;20192;-46
2022/05/17 03:13:15;;;;;;;6.03;3.93;;;18.50;67.20;;;;;;5071477;28;20283;-44
2022/05/17 03:15:41;;;;;;;10.67;4.73;;;18.60;67.20;;;;;;5071071;28;20199;-48
2022/05/17 03:18:07;;;;;;;9.07;4.63;;;18.70;66.80;;;;;;5070991;28;20467;-47
2022/05/17 03:20:33;;;;;;;9.03;4.20;;;18.70;66.60;;;;;;5070246;28;20430;-48
2022/05/17 03:22:58;;;;;;;7.10;4.57;;;18.60;66.30;;;;;;5071438;28;20418;-47
2022/05/17 03:25:24;;;;;;;6.43;4.17;;;18.30;67.40;;;;;;5071051;28;20271;-45
2022/05/17 03:27:51;;;;;;;6.80;4.57;;;18.00;68.50;;;;;;5070938;28;20593;-47
2022/05/17 03:30:17;;;;;;;7.20;5.00;;;17.80;70.00;;;;;;5070867;28;20492;-44
2022/05/17 03:32:43;;;;;;;4.57;4.17;;;17.70;70.20;;;;;;5069494;28;20977;-43
2022/05/17 03:35:09;;;;;;;4.80;4.17;;;17.90;69.80;;;;;;5070775;28;20291;-45
2022/05/17 03:37:35;;;;;;;5.70;4.30;;;17.90;69.10;;;;;;5070755;28;20958;-46
2022/05/17 03:40:01;;;;;;;5.80;5.20;;;17.90;68.70;;;;;;5070321;28;20841;-47
2022/05/17 03:42:27;;;;;;;5.80;5.30;;;18.10;68.40;;;;;;5071007;28;20423;-46
2022/05/17 03:44:52;;;;;;;5.87;4.40;;;18.20;67.80;;;;;;5070664;28;20631;-43
2022/05/17 03:47:18;;;;;;;6.00;4.13;;;18.40;67.10;;;;;;5070526;28;20203;-44
2022/05/17 03:49:44;;;;;;;4.93;4.00;;;18.40;66.60;;;;;;5071086;28;20188;-48
2022/05/17 03:52:09;;;;;;;4.10;3.63;;;18.20;67.10;;;;;;5069845;28;20668;-43
2022/05/17 03:54:37;;;;;;;5.10;4.60;;;18.20;67.20;;;;;;5070785;28;20211;-43
2022/05/17 03:57:03;;;;;;;8.10;4.40;;;18.20;67.40;;;;;;5069789;28;20423;-45
2022/05/17 03:59:28;;;;;;;6.13;4.73;;;18.00;68.00;;;;;;5069236;28;20765;-44
2022/05/17 04:01:54;;;;;;;6.80;3.87;;;18.00;68.90;;;;;;5032333;28;1073560;-43
2022/05/17 04:04:20;;;;;;;5.60;4.50;;;17.90;68.90;;;;;;5058715;28;20858;-45
2022/05/17 04:06:46;;;;;;;5.03;4.30;;;18.00;68.40;;;;;;5070890;28;20554;-42
2022/05/17 04:09:12;;;;;;;8.50;4.70;;;18.00;67.90;;;;;;5071800;28;20187;-43
2022/05/17 04:11:38;;;;;;;7.00;5.10;;;18.00;68.10;;;;;;5070965;28;20993;-46
2022/05/17 04:14:05;;;;;;;11.30;4.60;;;18.10;67.90;;;;;;5069945;28;21390;-46
2022/05/17 04:16:32;;;;;;;6.00;4.37;;;18.20;67.30;;;;;;5070389;28;20196;-45
2022/05/17 04:18:58;;;;;;;9.23;4.60;;;18.30;67.00;;;;;;5070030;28;20781;-46
2022/05/17 04:21:24;;;;;;;6.60;4.97;;;18.30;66.70;;;;;;5070635;28;20418;-45
2022/05/17 04:23:50;;;;;;;6.00;4.43;;;18.30;66.50;;;;;;5071373;28;20990;-46
2022/05/17 04:26:16;;;;;;;4.60;4.07;;;18.30;66.30;;;;;;5068900;28;20305;-45
2022/05/17 04:28:41;;;;;;;9.10;4.67;;;18.30;66.60;;;;;;5071411;28;20195;-44
2022/05/17 04:31:08;;;;;;;4.90;4.33;;;18.30;67.00;;;;;;5069598;28;20298;-45
2022/05/17 04:33:34;;;;;;;4.93;4.37;;;18.30;67.10;;;;;;5071460;28;20446;-45
2022/05/17 04:35:59;;;;;;;13.30;5.47;;;18.40;66.80;;;;;;5070007;28;20207;-44
2022/05/17 04:38:25;;;;;;;7.33;4.63;;;18.30;67.00;;;;;;5071083;28;20438;-43
2022/05/17 04:40:51;;;;;;;5.10;4.60;;;18.10;67.70;;;;;;5070569;28;20192;-44
2022/05/17 04:43:16;;;;;;;5.63;5.00;;;18.00;68.70;;;;;;5070753;28;20655;-43
2022/05/17 04:45:44;;;;;;;5.07;4.53;;;17.80;69.50;;;;;;5070602;28;20196;-46
2022/05/17 04:48:10;;;;;;;6.03;5.43;;;17.90;69.60;;;;;;5070454;28;20249;-44
2022/05/17 04:50:37;;;;;;;5.50;4.73;;;17.90;70.00;;;;;;5070277;28;20784;-46
2022/05/17 04:53:03;;;;;;;5.77;4.63;;;18.00;69.50;;;;;;5069031;28;20284;-43
2022/05/17 04:55:28;;;;;;;10.23;6.50;;;18.00;69.30;;;;;;5069882;28;20509;-46
2022/05/17 04:57:54;;;;;;;8.57;5.63;;;18.10;69.40;;;;;;5070205;28;20314;-45
2022/05/17 05:00:23;;;;;;;6.80;5.23;;;18.20;68.80;;;;;;5069948;28;20206;-45
2022/05/17 05:02:49;;;;;;;6.20;4.93;;;18.40;68.50;;;;;;5062561;28;20236;-45
2022/05/17 05:05:15;;;;;;;6.23;5.20;;;18.60;67.90;;;;;;5064878;28;20430;-46
2022/05/17 05:07:41;;;;;;;5.80;4.97;;;18.80;67.40;;;;;;5070079;28;20422;-46
2022/05/17 05:10:07;;;;;;;6.30;5.20;;;18.90;67.40;;;;;;5069890;28;20441;-44
2022/05/17 05:12:34;;;;;;;5.80;5.07;;;18.90;67.20;;;;;;5070192;28;20835;-44
2022/05/17 05:15:00;;;;;;;8.60;4.87;;;19.00;67.20;;;;;;5069735;28;21137;-43
2022/05/17 05:17:32;;;;;;;5.60;5.00;;;18.90;67.00;;;;;;5069897;28;20429;-44
2022/05/17 05:19:59;;;;;;;5.63;4.80;;;18.50;69.50;;;;;;5068196;28;20430;-44
2022/05/17 05:22:25;;;;;;;14.30;5.47;;;18.10;71.20;;;;;;5069999;28;20437;-46
2022/05/17 05:24:52;;;;;;;7.33;5.93;;;18.30;71.60;;;;;;5069595;28;20441;-43
2022/05/17 05:27:18;;;;;;;7.00;6.30;;;18.60;70.80;;;;;;5069893;28;20410;-45
2022/05/17 05:29:43;;;;;;;9.27;5.80;;;18.60;70.10;;;;;;5070174;28;20472;-44
2022/05/17 05:32:09;;;;;;;7.00;6.30;;;18.30;71.40;;;;;;5069456;28;20513;-44
2022/05/17 05:34:35;;;;;;;8.90;5.83;;;18.10;72.40;;;;;;5070009;28;20518;-47
2022/05/17 05:37:01;;;;;;;6.50;5.57;;;18.10;72.70;;;;;;5069348;28;20461;-46
2022/05/17 05:39:26;;;;;;;6.30;5.70;;;18.10;73.20;;;;;;5070240;28;20192;-43
2022/05/17 05:41:52;;;;;;;7.93;5.60;;;18.20;72.90;;;;;;5069440;28;20414;-43
2022/05/17 05:44:19;;;;;;;7.57;5.17;;;18.40;72.60;;;;;;5069568;28;20282;-44
2022/05/17 05:46:45;;;;;;;8.47;5.17;;;18.40;73.00;;;;;;5067812;28;20433;-47
2022/05/17 05:49:10;;;;;;;10.80;6.33;;;18.60;72.10;;;;;;5070034;28;20521;-43
2022/05/17 05:51:36;;;;;;;8.80;5.40;;;19.00;70.90;;;;;;5069297;28;20562;-43
2022/05/17 05:54:03;;;;;;;6.97;5.37;;;18.90;70.70;;;;;;5069845;28;20191;-47
2022/05/17 05:56:29;;;;;;;8.23;5.23;;;18.90;70.90;;;;;;5068694;28;20419;-43
2022/05/17 05:58:54;;;;;;;8.17;6.10;;;18.90;71.50;;;;;;5069741;28;20434;-43
2022/05/17 06:01:20;;;;;;;6.93;5.33;;;19.20;70.70;;;;;;5069255;28;20236;-43
2022/05/17 06:03:46;;;;;;;6.00;5.40;;;19.30;70.60;;;;;;5056205;28;20543;-43
2022/05/17 06:06:12;;;;;;;10.43;4.90;;;19.40;70.40;;;;;;5069053;28;20198;-44
2022/05/17 06:08:38;;;;;;;6.00;4.90;;;19.60;69.00;;;;;;5068389;28;21056;-43
2022/05/17 06:11:04;;;;;;;5.60;4.53;;;19.80;68.60;;;;;;5068987;28;20548;-43
2022/05/17 06:13:31;;;;;;;4.77;4.13;;;20.10;67.50;;;;;;5067837;28;20200;-43
2022/05/17 06:15:56;;;;;;;5.10;4.23;;;20.40;66.80;;;;;;5068768;28;21202;-43
2022/05/17 06:18:22;;;;;;;10.13;4.40;;;20.60;65.90;;;;;;5069460;28;20497;-43
2022/05/17 06:20:55;;;;;;;6.77;5.10;;;20.70;65.50;;;;;;5068825;28;20230;-43
2022/05/17 06:23:23;;;;;;;8.73;4.63;;;21.00;64.70;;;;;;5069373;28;20663;-44
2022/05/17 06:25:49;;;;;;;5.77;3.90;;;21.30;63.20;;;;;;5068646;28;20426;-43
2022/05/17 06:28:15;;;;;;;7.00;4.40;;;21.40;62.70;;;;;;5069581;28;20433;-43
2022/05/17 06:30:43;;;;;;;7.30;4.97;;;21.60;61.20;;;;;;5068963;28;20422;-43
2022/05/17 06:33:11;;;;;;;7.77;4.67;;;21.40;60.90;;;;;;5069504;28;20192;-47
2022/05/17 06:35:42;;;;;;;5.23;4.30;;;21.40;62.00;;;;;;5068953;28;20505;-45
2022/05/17 06:38:08;;;;;;;4.87;4.40;;;21.60;62.30;;;;;;5069318;28;20855;-46
2022/05/17 06:40:34;;;;;;;6.20;4.63;;;21.90;60.90;;;;;;5067103;28;20418;-43
2022/05/17 06:43:00;;;;;;;5.70;4.60;;;22.00;60.50;;;;;;5069510;28;20810;-44
2022/05/17 06:45:26;;;;;;;4.80;4.10;;;22.20;60.10;;;;;;5068961;28;20508;-44
2022/05/17 06:47:52;;;;;;;10.83;5.40;;;22.30;59.70;;;;;;5068962;28;20437;-43
2022/05/17 06:50:18;;;;;;;7.37;4.57;;;22.50;59.60;;;;;;5068681;28;20434;-44
2022/05/17 06:52:44;;;;;;;5.00;4.50;;;22.80;59.10;;;;;;5069501;28;20239;-43
2022/05/17 06:55:11;;;;;;;5.27;4.80;;;22.90;58.90;;;;;;5070783;28;20438;-43
2022/05/17 06:57:37;;;;;;;6.83;5.30;;;23.10;58.20;;;;;;5072508;28;20479;-43
2022/05/17 07:00:05;;;;;;;6.40;4.40;;;23.20;58.10;;;;;;5072162;28;20444;-44
2022/05/17 07:02:32;;;;;;;4.73;4.30;;;23.40;57.60;;;;;;5067344;28;20565;-43
2022/05/17 07:04:59;;;;;;;5.40;4.23;;;23.60;56.60;;;;;;5064387;28;20429;-43
2022/05/17 07:07:26;;;;;;;7.07;4.07;;;23.80;56.30;;;;;;5070585;28;20426;-43
2022/05/17 07:15:21;;;;;;;5.27;4.77;;;24.10;54.80;;;;;;5072134;28;20433;-43
2022/05/17 07:17:47;;;;;;;5.87;4.60;;;24.10;54.90;;;;;;5072096;28;20994;-43
2022/05/17 07:20:13;;;;;;;5.57;4.37;;;24.30;55.00;;;;;;5072217;28;20195;-43
2022/05/17 07:22:38;;;;;;;7.37;6.27;;;24.60;54.80;;;;;;5072467;28;20418;-43
2022/05/17 07:25:04;;;;;;;5.30;4.80;;;24.80;53.20;;;;;;5071767;28;20852;-43
2022/05/17 07:27:30;;;;;;;8.30;4.93;;;25.20;52.50;;;;;;5070556;28;20199;-43
2022/05/17 07:29:56;;;;;;;4.67;4.23;;;25.30;52.50;;;;;;5071751;28;20418;-43
2022/05/17 07:32:21;;;;;;;6.60;4.93;;;25.40;52.30;;;;;;5072292;28;20228;-43
2022/05/17 07:34:47;;;;;;;4.80;4.40;;;25.60;52.50;;;;;;5070228;28;20257;-43
2022/05/17 07:37:14;;;;;;;5.80;5.30;;;25.90;51.90;;;;;;5071597;28;20202;-43
2022/05/17 07:39:40;;;;;;;5.20;4.70;;;25.90;50.40;;;;;;5072075;28;20196;-45
2022/05/17 07:42:07;;;;;;;4.90;4.50;;;25.90;50.20;;;;;;5071740;28;20463;-44
2022/05/17 07:44:33;;;;;;;6.10;4.70;;;26.10;50.10;;;;;;5071823;28;20509;-43
2022/05/17 07:46:58;;;;;;;5.13;4.33;;;26.10;49.90;;;;;;5071096;28;20434;-44
2022/05/17 07:49:24;;;;;;;4.90;4.40;;;26.40;49.70;;;;;;5071958;28;20422;-43
2022/05/17 07:51:50;;;;;;;4.90;4.37;;;26.50;49.50;;;;;;5071315;28;20260;-44
2022/05/17 07:54:15;;;;;;;8.33;4.00;;;26.60;47.60;;;;;;5071683;28;20192;-44
2022/05/17 07:56:41;;;;;;;6.67;4.57;;;26.70;48.10;;;;;;5071232;28;20195;-44
2022/05/17 07:59:07;;;;;;;4.53;3.70;;;26.90;48.20;;;;;;5071766;28;20647;-43
2022/05/17 08:01:33;;;;;;;6.00;4.50;;;27.00;47.90;;;;;;5069566;28;20234;-44
2022/05/17 08:03:58;;;;;;;7.40;4.10;;;26.20;48.70;;;;;;5058338;28;20784;-44
2022/05/17 08:06:24;;;;;;;6.60;4.23;;;26.50;48.30;;;;;;5069904;28;20203;-44
2022/05/17 08:08:50;;;;;;;4.30;3.83;;;26.50;47.80;;;;;;5071950;28;20198;-45
2022/05/17 08:11:15;;;;;;;5.30;3.77;;;26.60;47.80;;;;;;5071347;28;20227;-44
2022/05/17 08:13:41;;;;;;;4.57;4.17;;;26.90;47.70;;;;;;5071539;28;20184;-43
2022/05/17 08:16:07;;;;;;;5.43;4.03;;;27.30;47.60;;;;;;5070868;28;20184;-45
2022/05/17 08:18:34;;;;;;;4.73;3.83;;;27.50;48.00;;;;;;5071747;28;20564;-44
2022/05/17 08:21:00;;;;;;;4.80;4.30;;;27.80;46.30;;;;;;5070702;28;20222;-44
2022/05/17 08:23:25;;;;;;;5.20;4.20;;;27.90;45.00;;;;;;5071265;28;20456;-44
2022/05/17 08:28:35;;;;;;;4.77;3.53;;;28.00;44.10;;;;;;5069709;28;20966;-44
2022/05/17 08:31:01;;;;;;;3.70;3.03;;;28.00;42.70;;;;;;5070717;28;20423;-45
2022/05/17 08:33:27;;;;;;;4.97;3.17;;;28.10;43.60;;;;;;5071161;28;20192;-45
2022/05/17 08:35:53;;;;;;;6.53;3.13;;;28.20;42.60;;;;;;5070075;28;20192;-44
2022/05/17 08:38:30;;;;;;;3.00;2.70;;;28.30;42.50;;;;;;5070925;28;20219;-43
2022/05/17 08:41:23;;;;;;;4.63;3.23;;;28.50;42.30;;;;;;5070514;28;20540;-44
2022/05/17 08:44:03;;;;;;;7.33;4.57;;;28.70;40.80;;;;;;5070828;28;20481;-44
2022/05/17 08:46:47;;;;;;;3.23;2.80;;;28.80;41.80;;;;;;5069850;28;20468;-46
2022/05/17 08:49:15;;;;;;;4.20;2.60;;;29.00;41.30;;;;;;5070905;28;20430;-44
2022/05/17 08:52:07;;;;;;;3.03;2.53;;;29.10;40.80;;;;;;5070159;28;20535;-45
2022/05/17 08:54:37;;;;;;;3.30;3.00;;;29.20;40.20;;;;;;5056965;28;20507;-45
2022/05/17 08:57:33;;;;;;;4.87;2.67;;;29.40;40.90;;;;;;5068862;28;20437;-43
2022/05/17 09:00:06;;;;;;;6.83;3.20;;;29.60;39.70;;;;;;5070049;28;20487;-48
2022/05/17 09:02:50;;;;;;;4.40;2.73;;;29.70;38.20;;;;;;5064915;28;20512;-47
2022/05/17 09:05:24;;;;;;;4.70;3.30;;;29.80;38.10;;;;;;5064859;28;21005;-48
2022/05/17 09:08:07;;;;;;;3.53;3.23;;;30.00;39.50;;;;;;5070784;28;20902;-46
2022/05/17 09:10:37;;;;;;;3.10;2.90;;;30.20;38.50;;;;;;5069998;28;20456;-45
2022/05/17 09:13:08;;;;;;;6.23;3.63;;;30.30;38.60;;;;;;5070578;28;20482;-45
2022/05/17 09:15:33;;;;;;;4.13;3.10;;;30.50;37.50;;;;;;5069714;28;20434;-44
2022/05/17 09:18:05;;;;;;;3.83;3.10;;;30.60;37.90;;;;;;5069916;28;20426;-44
2022/05/17 09:20:34;;;;;;;14.03;3.13;;;30.80;37.90;;;;;;5069874;28;20191;-44
2022/05/17 09:23:00;;;;;;;3.80;2.90;;;30.90;37.00;;;;;;5068437;28;20430;-44
2022/05/17 09:25:44;;;;;;;4.67;3.13;;;31.10;36.30;;;;;;5069468;28;20429;-45
2022/05/17 09:28:10;;;;;;;3.50;3.17;;;31.30;37.40;;;;;;5070030;28;20686;-44
2022/05/17 09:30:38;;;;;;;6.53;3.60;;;31.30;37.10;;;;;;5069560;28;20429;-45
2022/05/17 09:33:10;;;;;;;3.80;3.13;;;31.40;37.70;;;;;;5070024;28;20893;-43
2022/05/17 09:35:55;;;;;;;3.63;3.33;;;31.50;37.30;;;;;;5069599;28;20520;-45
2022/05/17 09:38:20;;;;;;;7.87;3.33;;;31.60;37.60;;;;;;5069664;28;20562;-46
2022/05/17 09:40:49;;;;;;;4.87;3.23;;;31.50;36.00;;;;;;5069786;28;20508;-44
2022/05/17 09:43:24;;;;;;;5.03;3.70;;;31.70;36.20;;;;;;5070377;28;20192;-45
2022/05/17 09:45:58;;;;;;;5.70;2.97;;;31.90;35.60;;;;;;5068913;28;20467;-44
2022/05/17 09:52:32;;;;;;;4.17;3.57;;;32.00;36.10;;;;;;5069749;28;20513;-45
2022/05/17 09:54:31;;;;;;;5.47;3.57;;;32.40;35.70;;;;;;5070408;28;20491;-47
2022/05/17 09:57:24;;;;;;;4.00;2.60;;;32.60;34.70;;;;;;5068921;28;20441;-44
2022/05/17 09:59:54;;;;;;;4.80;2.63;;;32.70;33.30;;;;;;5069470;28;20425;-45
2022/05/17 10:02:28;;;;;;;3.97;3.13;;;32.70;33.30;;;;;;5065944;28;20485;-44
2022/05/17 10:04:59;;;;;;;3.63;3.20;;;32.80;32.30;;;;;;5061346;28;20433;-45
2022/05/17 10:07:29;;;;;;;6.53;2.93;;;32.70;32.60;;;;;;5069141;28;20427;-46
2022/05/17 10:09:54;;;;;;;3.13;2.83;;;32.80;32.10;;;;;;5069132;28;20423;-49
2022/05/17 10:12:30;;;;;;;4.77;2.60;;;32.90;33.50;;;;;;5069590;28;20482;-46
2022/05/17 10:15:05;;;;;;;3.50;3.10;;;33.10;34.70;;;;;;5069118;28;20274;-47
2022/05/17 10:17:42;;;;;;;3.17;2.87;;;33.10;33.00;;;;;;5067102;28;20421;-46
2022/05/17 10:20:13;;;;;;;4.63;3.33;;;33.00;32.80;;;;;;5068885;28;20434;-49
2022/05/17 10:22:54;;;;;;;4.63;2.90;;;33.00;33.80;;;;;;5069942;28;21063;-45
2022/05/17 10:25:41;;;;;;;7.53;3.50;;;33.30;33.10;;;;;;5068707;28;21014;-45
2022/05/17 10:28:29;;;;;;;4.10;3.20;;;33.50;33.80;;;;;;5069403;28;20422;-44
2022/05/17 10:31:01;;;;;;;2.87;2.53;;;33.70;33.10;;;;;;5072359;28;20793;-46
2022/05/17 10:33:35;;;;;;;5.30;3.50;;;33.80;32.30;;;;;;5073379;28;20433;-44
2022/05/17 10:36:14;;;;;;;3.60;2.53;;;33.90;31.20;;;;;;5072380;28;20433;-44
2022/05/17 10:39:01;;;;;;;4.17;2.83;;;34.10;32.20;;;;;;5073111;28;20426;-45
2022/05/17 10:41:26;;;;;;;4.93;2.53;;;34.30;32.60;;;;;;5072696;28;20414;-44
2022/05/17 10:43:53;;;;;;;3.20;2.43;;;34.40;29.60;;;;;;5071619;28;20452;-45
2022/05/17 10:46:48;;;;;;;3.53;2.50;;;34.40;30.00;;;;;;5072284;28;20203;-44
2022/05/17 10:49:23;;;;;;;4.47;2.43;;;34.30;31.10;;;;;;5072124;28;20438;-44
2022/05/17 10:51:56;;;;;;;3.90;2.50;;;34.40;30.30;;;;;;5072731;28;20560;-44
2022/05/17 10:54:36;;;;;;;4.30;2.07;;;34.50;31.60;;;;;;5073188;28;20461;-44
2022/05/17 10:57:24;;;;;;;2.80;2.00;;;34.60;30.40;;;;;;5071886;28;20456;-45
2022/05/17 11:00:09;;;;;;;3.30;2.23;;;34.60;28.90;;;;;;5072590;28;20453;-47
2022/05/17 11:02:47;;;;;;;5.87;2.10;;;34.80;29.00;;;;;;5067141;28;20482;-44
2022/05/17 11:05:53;;;;;;;2.77;1.70;;;34.70;28.70;;;;;;5066252;28;20446;-44
2022/05/17 11:08:56;;;;;;;2.30;2.03;;;34.60;28.80;;;;;;5061225;28;20474;-45
2022/05/17 11:12:10;;;;;;;3.03;1.90;;;34.70;29.80;;;;;;5070538;28;20481;-45
2022/05/17 11:14:55;;;;;;;3.50;2.00;;;34.80;28.20;;;;;;5072833;28;21245;-44
2022/05/17 11:17:39;;;;;;;4.13;2.70;;;34.90;27.50;;;;;;5072370;28;20437;-44
2022/05/17 11:20:09;;;;;;;5.83;2.10;;;34.90;28.10;;;;;;5072012;28;20430;-46
2022/05/17 11:23:01;;;;;;;2.80;1.90;;;34.90;26.90;;;;;;5072408;28;20445;-47
2022/05/17 11:25:57;;;;;;;3.73;2.40;;;35.00;26.80;;;;;;5069484;28;20465;-46
2022/05/17 11:28:25;;;;;;;2.00;1.90;;;35.00;27.90;;;;;;5072296;28;20426;-44
2022/05/17 11:31:03;;;;;;;2.80;1.80;;;35.00;28.80;;;;;;5071634;28;20434;-44
2022/05/17 11:33:32;;;;;;;1.77;1.67;;;35.10;27.00;;;;;;5072383;28;20460;-43
2022/05/17 11:36:00;;;;;;;1.87;1.73;;;35.10;26.80;;;;;;5070693;28;20523;-45
2022/05/17 11:38:32;;;;;;;1.90;1.40;;;35.10;27.20;;;;;;5071659;28;20497;-44
2022/05/17 11:41:00;;;;;;;2.33;1.80;;;35.20;26.80;;;;;;5071327;28;20484;-44
2022/05/17 11:43:42;;;;;;;2.30;1.83;;;35.20;25.70;;;;;;5072363;28;20430;-45
2022/05/17 11:46:29;;;;;;;1.50;1.40;;;35.10;26.50;;;;;;5071406;28;20461;-43
2022/05/17 11:48:57;;;;;;;2.87;1.57;;;35.20;26.90;;;;;;5072056;28;20949;-45
2022/05/17 11:51:28;;;;;;;1.60;1.50;;;35.20;27.10;;;;;;5071273;28;20501;-44
2022/05/17 11:53:54;;;;;;;2.50;1.90;;;35.30;27.10;;;;;;5072056;28;20422;-44
2022/05/17 11:56:25;;;;;;;2.60;1.90;;;35.30;26.40;;;;;;5071254;28;20426;-47
2022/05/17 11:59:21;;;;;;;2.37;1.70;;;35.30;26.10;;;;;;5072143;28;20430;-44
2022/05/17 12:01:49;;;;;;;2.20;1.80;;;34.40;27.00;;;;;;5071191;28;20470;-45
2022/05/17 12:04:21;;;;;;;1.60;1.50;;;34.10;28.00;;;;;;5057055;28;20446;-46
2022/05/17 12:06:53;;;;;;;2.00;1.83;;;34.30;27.90;;;;;;5071171;28;20497;-45
2022/05/17 12:09:49;;;;;;;3.80;2.73;;;34.70;27.90;;;;;;5071983;28;20438;-47
2022/05/17 12:12:39;;;;;;;4.93;2.33;;;35.00;29.20;;;;;;5071486;28;20525;-48
2022/05/17 12:15:32;;;;;;;2.90;1.80;;;35.10;29.60;;;;;;5071093;28;20521;-48
2022/05/17 12:18:13;;;;;;;3.50;2.10;;;35.20;28.10;;;;;;5071778;28;20434;-48
2022/05/17 12:21:11;;;;;;;3.10;2.07;;;34.60;26.90;;;;;;5071348;28;20500;-48
2022/05/17 12:23:45;;;;;;;2.30;2.10;;;33.80;27.80;;;;;;5071458;28;20532;-49
2022/05/17 12:26:22;;;;;;;4.10;2.13;;;33.90;28.50;;;;;;5070883;28;20790;-48
2022/05/17 12:28:52;;;;;;;2.00;1.80;;;34.30;28.50;;;;;;5071524;28;20986;-45
2022/05/17 12:31:26;;;;;;;5.17;2.10;;;34.60;28.00;;;;;;5068940;28;20470;-44
2022/05/17 12:33:55;;;;;;;2.40;2.20;;;34.90;28.80;;;;;;5071411;28;20517;-48
2022/05/17 12:36:26;;;;;;;3.90;1.83;;;35.10;28.80;;;;;;5070253;28;20434;-47
2022/05/17 12:45:12;;;;;;;3.73;2.30;;;35.60;28.10;;;;;;5071315;28;20429;-44
2022/05/17 12:47:49;;;;;;;3.83;2.07;;;35.80;27.80;;;;;;5048488;28;20620;-49
2022/05/17 12:50:19;;;;;;;5.90;3.17;;;35.50;27.10;;;;;;5070482;28;20450;-46
2022/05/17 12:52:47;;;;;;;2.10;1.93;;;35.30;27.00;;;;;;5070251;28;20954;-45
2022/05/17 12:55:19;;;;;;;2.80;1.80;;;35.10;27.80;;;;;;5070190;28;20528;-48
2022/05/17 12:57:44;;;;;;;3.80;2.27;;;35.40;27.30;;;;;;5069517;28;20426;-44
2022/05/17 13:00:25;;;;;;;2.43;2.23;;;35.60;26.70;;;;;;5070144;28;20430;-46
2022/05/17 13:02:58;;;;;;;3.47;2.30;;;35.50;26.90;;;;;;5062761;28;20232;-48
2022/05/17 13:05:39;;;;;;;2.07;1.87;;;35.70;26.80;;;;;;5065651;28;20446;-44
2022/05/17 13:08:12;;;;;;;3.93;2.10;;;35.90;27.10;;;;;;5070444;28;20969;-45
2022/05/17 13:10:41;;;;;;;3.63;2.10;;;36.00;27.40;;;;;;5070398;28;20449;-45
2022/05/17 13:13:19;;;;;;;2.83;2.33;;;36.00;27.00;;;;;;5070531;28;20486;-45
2022/05/17 13:15:53;;;;;;;2.23;2.03;;;36.00;26.50;;;;;;5069936;28;20834;-45
2022/05/17 13:18:19;;;;;;;2.20;2.00;;;36.00;27.50;;;;;;5070385;28;20479;-44
2022/05/17 13:20:48;;;;;;;2.57;2.00;;;35.70;26.00;;;;;;5069987;28;20476;-48